Impacts TAF Board INFO
FOR SITUATIONAL AWARENESS. NOT TO BE USED FOR FLIGHT PLANNING PURPOSES.
IDs:

KCLT - Charlotte/Douglas In, NC, US

Issued at 1720 UTC 29 May 2017
Updated at 1850 UTC 29 May 2017
Potential Impact None Slight Moderate High
Time1752Z 29/19Z 29/20Z 29/21Z 29/22Z 29/23Z 30/00Z 30/01Z 30/02Z 30/03Z 30/04Z 30/05Z 30/06Z 30/07Z>>
Type OBS PRVL PRVL PRVL PRVL
  [TEMP]  
PRVL
  [TEMP]  
PRVL
  [TEMP]  
PRVL
  [TEMP]  
PRVL PRVL PRVL PRVL PRVL PRVL
VIS 10 >6 >6 >6 >6
  [4]  
>6
  [4]  
>6
  [4]  
>6
  [4]  
>6 >6 >6 >6 >6 >6
CIG -- -- 60 60 60
  [35]  
60
  [35]  
60
  [35]  
60
  [35]  
60 60 60 60 90 90
Cover SCT SCT BKN BKN BKN
  [BKN]  
BKN
  [BKN]  
BKN
  [BKN]  
BKN
  [BKN]  
BKN BKN BKN BKN OVC OVC
FltCat VFR VFR VFR VFR VFR
  [MVFR]  
VFR
  [MVFR]  
VFR
  [MVFR]  
VFR
  [MVFR]  
VFR VFR VFR VFR VFR VFR
WX -- -- VCSH VCSH VCSH
  [TSRA BR]  
VCSH
  [TSRA BR]  
VCSH
  [TSRA BR]  
VCSH
  [TSRA BR]  
VCSH VCSH VCSH VCSH -- --
WDir VRB 240 280 280 280
[VRB]
280
[VRB]
280
[VRB]
280
[VRB]
280 280 280 280 10 10
WSpd 4 4 5 5 5
  [20]  
5
  [20]  
5
  [20]  
5
  [20]  
5 5 5 5 4 4
WGst -- -- -- -- --
  [30]  
--
  [30]  
--
  [30]  
--
  [30]  
-- -- -- -- -- --

Raw TAF
KCLT 291720Z 2918/3018 24004KT P6SM SCT060
  FM292000 28005KT P6SM VCSH BKN060
  TEMPO 2922/3002 VRB20G30KT 4SM TSRA BR BKN035CB
  FM300600 01004KT P6SM SCT040 OVC090
  FM301000 VRB02KT 5SM BR OVC030
  FM301500 25005KT P6SM BKN035
  PROB30 3015/3018 4SM -TSRA OVC025CB


Raw METAR
KCLT 291752Z VRB04KT 10SM SCT048 SCT250 30/18 A2999 RMK AO2 SLP148 T03000178 10300 20206 50003
KCLT 291652Z 20005KT 10SM SCT048 SCT250 28/17 A3000 RMK AO2 SLP152 T02830167
KCLT 291552Z VRB04KT 10SM FEW050 SCT250 28/16 A3001 RMK AO2 SLP155 T02780161

METAR Board
Radar Display
Forecast Discussion

FOR SITUATIONAL AWARENESS. NOT TO BE USED FOR FLIGHT PLANNING PURPOSES.

Page loaded:  18:50 UTC  |   11:50 AM Pacific  |   12:50 PM Mountain  |   01:50 PM Central  |   02:50 PM Eastern

 

ADVISORIES

FORECASTS

FORECASTS

OBSERVATIONS

USER TOOLS

ABOUT US